sensor_id;sensor_type;location;lat;lon;timestamp;P1;durP1;ratioP1;P2;durP2;ratioP2
75413;SDS011;64758;52.122;5.404;2023-02-28T00:01:12;3.30;;;1.92;;
75413;SDS011;64758;52.122;5.404;2023-02-28T00:03:39;4.03;;;1.92;;
75413;SDS011;64758;52.122;5.404;2023-02-28T00:06:06;4.53;;;1.73;;
75413;SDS011;64758;52.122;5.404;2023-02-28T00:08:36;4.43;;;1.83;;
75413;SDS011;64758;52.122;5.404;2023-02-28T00:11:04;3.42;;;1.90;;
75413;SDS011;64758;52.122;5.404;2023-02-28T00:13:33;4.80;;;1.75;;
75413;SDS011;64758;52.122;5.404;2023-02-28T00:16:02;3.13;;;1.58;;
75413;SDS011;64758;52.122;5.404;2023-02-28T00:18:30;3.13;;;1.70;;
75413;SDS011;64758;52.122;5.404;2023-02-28T00:20:57;4.47;;;1.80;;
75413;SDS011;64758;52.122;5.404;2023-02-28T00:23:24;3.67;;;1.63;;
75413;SDS011;64758;52.122;5.404;2023-02-28T00:25:52;3.63;;;2.00;;
75413;SDS011;64758;52.122;5.404;2023-02-28T00:28:19;2.47;;;1.52;;
75413;SDS011;64758;52.122;5.404;2023-02-28T00:30:45;4.97;;;2.10;;
75413;SDS011;64758;52.122;5.404;2023-02-28T00:33:12;4.60;;;2.30;;
75413;SDS011;64758;52.122;5.404;2023-02-28T00:35:39;5.85;;;1.73;;
75413;SDS011;64758;52.122;5.404;2023-02-28T00:38:05;4.95;;;1.90;;
75413;SDS011;64758;52.122;5.404;2023-02-28T00:40:32;4.07;;;1.80;;
75413;SDS011;64758;52.122;5.404;2023-02-28T00:42:58;4.55;;;1.60;;
75413;SDS011;64758;52.122;5.404;2023-02-28T00:45:25;2.57;;;1.60;;
75413;SDS011;64758;52.122;5.404;2023-02-28T00:47:51;4.60;;;1.50;;
75413;SDS011;64758;52.122;5.404;2023-02-28T00:50:19;5.20;;;1.80;;
75413;SDS011;64758;52.122;5.404;2023-02-28T00:52:46;6.40;;;1.85;;
75413;SDS011;64758;52.122;5.404;2023-02-28T00:55:14;4.43;;;1.77;;
75413;SDS011;64758;52.122;5.404;2023-02-28T00:57:41;3.90;;;1.43;;
75413;SDS011;64758;52.122;5.404;2023-02-28T01:00:08;2.30;;;1.55;;
75413;SDS011;64758;52.122;5.404;2023-02-28T01:02:34;4.07;;;2.22;;
75413;SDS011;64758;52.122;5.404;2023-02-28T01:05:01;3.70;;;1.45;;
75413;SDS011;64758;52.122;5.404;2023-02-28T01:07:28;3.70;;;1.77;;
75413;SDS011;64758;52.122;5.404;2023-02-28T01:09:54;4.97;;;1.43;;
75413;SDS011;64758;52.122;5.404;2023-02-28T01:12:21;3.88;;;1.63;;
75413;SDS011;64758;52.122;5.404;2023-02-28T01:14:47;4.78;;;1.75;;
75413;SDS011;64758;52.122;5.404;2023-02-28T01:17:14;5.65;;;1.55;;
75413;SDS011;64758;52.122;5.404;2023-02-28T01:19:40;3.40;;;1.63;;
75413;SDS011;64758;52.122;5.404;2023-02-28T01:22:07;3.83;;;1.73;;
75413;SDS011;64758;52.122;5.404;2023-02-28T01:24:33;6.82;;;1.60;;
75413;SDS011;64758;52.122;5.404;2023-02-28T01:27:00;3.33;;;1.50;;
75413;SDS011;64758;52.122;5.404;2023-02-28T01:29:26;3.70;;;1.50;;
75413;SDS011;64758;52.122;5.404;2023-02-28T01:31:53;3.80;;;1.80;;
75413;SDS011;64758;52.122;5.404;2023-02-28T01:34:19;3.83;;;1.30;;
75413;SDS011;64758;52.122;5.404;2023-02-28T01:36:46;3.80;;;1.83;;
75413;SDS011;64758;52.122;5.404;2023-02-28T01:39:13;3.30;;;1.48;;
75413;SDS011;64758;52.122;5.404;2023-02-28T01:41:39;3.90;;;1.60;;
75413;SDS011;64758;52.122;5.404;2023-02-28T01:46:53;2.67;;;1.70;;
75413;SDS011;64758;52.122;5.404;2023-02-28T01:49:19;7.30;;;1.63;;
75413;SDS011;64758;52.122;5.404;2023-02-28T01:51:48;3.88;;;1.63;;
75413;SDS011;64758;52.122;5.404;2023-02-28T01:54:21;3.03;;;1.40;;
75413;SDS011;64758;52.122;5.404;2023-02-28T01:56:53;3.83;;;1.83;;
75413;SDS011;64758;52.122;5.404;2023-02-28T01:59:25;2.70;;;1.40;;
75413;SDS011;64758;52.122;5.404;2023-02-28T02:01:57;5.97;;;1.83;;
75413;SDS011;64758;52.122;5.404;2023-02-28T02:04:25;2.85;;;1.88;;
75413;SDS011;64758;52.122;5.404;2023-02-28T02:06:58;4.78;;;1.65;;
75413;SDS011;64758;52.122;5.404;2023-02-28T02:09:25;5.25;;;1.75;;
75413;SDS011;64758;52.122;5.404;2023-02-28T02:11:51;2.87;;;1.90;;
75413;SDS011;64758;52.122;5.404;2023-02-28T02:22:43;2.78;;;1.60;;
75413;SDS011;64758;52.122;5.404;2023-02-28T02:28:33;3.53;;;1.80;;
75413;SDS011;64758;52.122;5.404;2023-02-28T02:36:58;4.78;;;1.65;;
75413;SDS011;64758;52.122;5.404;2023-02-28T02:39:29;4.97;;;1.70;;
75413;SDS011;64758;52.122;5.404;2023-02-28T02:42:05;4.95;;;2.03;;
75413;SDS011;64758;52.122;5.404;2023-02-28T02:44:42;5.57;;;1.90;;
75413;SDS011;64758;52.122;5.404;2023-02-28T02:47:14;4.43;;;1.42;;
75413;SDS011;64758;52.122;5.404;2023-02-28T02:49:46;4.00;;;1.92;;
75413;SDS011;64758;52.122;5.404;2023-02-28T02:52:18;3.67;;;1.90;;
75413;SDS011;64758;52.122;5.404;2023-02-28T02:54:50;4.43;;;2.22;;
75413;SDS011;64758;52.122;5.404;2023-02-28T02:57:36;4.97;;;1.83;;
75413;SDS011;64758;52.122;5.404;2023-02-28T03:00:16;4.03;;;1.83;;
75413;SDS011;64758;52.122;5.404;2023-02-28T03:02:46;3.75;;;2.05;;
75413;SDS011;64758;52.122;5.404;2023-02-28T03:05:23;4.60;;;1.57;;
75413;SDS011;64758;52.122;5.404;2023-02-28T03:07:52;2.90;;;1.58;;
75413;SDS011;64758;52.122;5.404;2023-02-28T03:10:26;5.47;;;1.80;;
75413;SDS011;64758;52.122;5.404;2023-02-28T03:13:00;3.28;;;1.60;;
75413;SDS011;64758;52.122;5.404;2023-02-28T03:18:36;5.63;;;1.60;;
75413;SDS011;64758;52.122;5.404;2023-02-28T03:24:02;4.40;;;2.03;;
75413;SDS011;64758;52.122;5.404;2023-02-28T03:26:42;5.78;;;2.10;;
75413;SDS011;64758;52.122;5.404;2023-02-28T03:31:50;7.00;;;1.87;;
75413;SDS011;64758;52.122;5.404;2023-02-28T03:34:26;5.25;;;2.20;;
75413;SDS011;64758;52.122;5.404;2023-02-28T03:36:55;4.25;;;1.90;;
75413;SDS011;64758;52.122;5.404;2023-02-28T03:39:30;3.25;;;1.85;;
75413;SDS011;64758;52.122;5.404;2023-02-28T03:42:05;6.47;;;2.05;;
75413;SDS011;64758;52.122;5.404;2023-02-28T03:47:41;4.90;;;1.83;;
75413;SDS011;64758;52.122;5.404;2023-02-28T03:50:18;4.25;;;1.85;;
75413;SDS011;64758;52.122;5.404;2023-02-28T03:52:57;3.38;;;1.58;;
75413;SDS011;64758;52.122;5.404;2023-02-28T03:55:39;7.47;;;2.38;;
75413;SDS011;64758;52.122;5.404;2023-02-28T03:58:13;5.17;;;2.07;;
75413;SDS011;64758;52.122;5.404;2023-02-28T04:00:54;3.55;;;2.00;;
75413;SDS011;64758;52.122;5.404;2023-02-28T04:03:24;4.35;;;1.70;;
75413;SDS011;64758;52.122;5.404;2023-02-28T04:05:52;5.70;;;2.10;;
75413;SDS011;64758;52.122;5.404;2023-02-28T04:08:21;6.22;;;1.80;;
75413;SDS011;64758;52.122;5.404;2023-02-28T04:10:50;4.17;;;1.90;;
75413;SDS011;64758;52.122;5.404;2023-02-28T04:13:21;5.72;;;2.20;;
75413;SDS011;64758;52.122;5.404;2023-02-28T04:15:48;4.82;;;1.80;;
75413;SDS011;64758;52.122;5.404;2023-02-28T04:18:14;6.40;;;1.67;;
75413;SDS011;64758;52.122;5.404;2023-02-28T04:20:41;4.43;;;1.50;;
75413;SDS011;64758;52.122;5.404;2023-02-28T04:23:07;4.17;;;1.40;;
75413;SDS011;64758;52.122;5.404;2023-02-28T04:25:34;3.13;;;1.15;;
75413;SDS011;64758;52.122;5.404;2023-02-28T04:28:00;2.72;;;1.23;;
75413;SDS011;64758;52.122;5.404;2023-02-28T04:30:27;3.03;;;1.40;;
75413;SDS011;64758;52.122;5.404;2023-02-28T04:32:55;2.45;;;1.50;;
75413;SDS011;64758;52.122;5.404;2023-02-28T04:35:22;2.07;;;1.10;;
75413;SDS011;64758;52.122;5.404;2023-02-28T04:37:48;2.40;;;1.38;;
75413;SDS011;64758;52.122;5.404;2023-02-28T04:40:15;5.97;;;1.45;;
75413;SDS011;64758;52.122;5.404;2023-02-28T04:42:42;2.95;;;1.00;;
75413;SDS011;64758;52.122;5.404;2023-02-28T04:45:08;3.67;;;1.52;;
75413;SDS011;64758;52.122;5.404;2023-02-28T04:47:36;2.70;;;1.20;;
75413;SDS011;64758;52.122;5.404;2023-02-28T04:50:03;2.50;;;1.67;;
75413;SDS011;64758;52.122;5.404;2023-02-28T04:52:29;2.67;;;1.45;;
75413;SDS011;64758;52.122;5.404;2023-02-28T04:54:56;5.50;;;1.60;;
75413;SDS011;64758;52.122;5.404;2023-02-28T04:57:22;4.38;;;1.63;;
75413;SDS011;64758;52.122;5.404;2023-02-28T04:59:49;3.43;;;1.70;;
75413;SDS011;64758;52.122;5.404;2023-02-28T05:02:15;4.15;;;1.60;;
75413;SDS011;64758;52.122;5.404;2023-02-28T05:04:42;3.38;;;1.58;;
75413;SDS011;64758;52.122;5.404;2023-02-28T05:07:09;3.78;;;1.38;;
75413;SDS011;64758;52.122;5.404;2023-02-28T05:09:36;2.25;;;1.50;;
75413;SDS011;64758;52.122;5.404;2023-02-28T05:12:02;5.00;;;1.73;;
75413;SDS011;64758;52.122;5.404;2023-02-28T05:14:29;4.70;;;1.40;;
75413;SDS011;64758;52.122;5.404;2023-02-28T05:16:55;3.83;;;1.45;;
75413;SDS011;64758;52.122;5.404;2023-02-28T05:19:22;3.15;;;1.30;;
75413;SDS011;64758;52.122;5.404;2023-02-28T05:21:52;2.45;;;1.48;;
75413;SDS011;64758;52.122;5.404;2023-02-28T05:24:21;3.00;;;1.30;;
75413;SDS011;64758;52.122;5.404;2023-02-28T05:26:50;4.43;;;1.80;;
75413;SDS011;64758;52.122;5.404;2023-02-28T05:29:18;3.35;;;1.42;;
75413;SDS011;64758;52.122;5.404;2023-02-28T05:31:45;3.53;;;1.70;;
75413;SDS011;64758;52.122;5.404;2023-02-28T05:34:12;2.63;;;1.55;;
75413;SDS011;64758;52.122;5.404;2023-02-28T05:36:41;1.77;;;1.40;;
75413;SDS011;64758;52.122;5.404;2023-02-28T05:39:08;3.00;;;1.33;;
75413;SDS011;64758;52.122;5.404;2023-02-28T05:41:42;2.53;;;1.35;;
75413;SDS011;64758;52.122;5.404;2023-02-28T05:44:09;4.43;;;1.58;;
75413;SDS011;64758;52.122;5.404;2023-02-28T05:46:36;3.38;;;1.30;;
75413;SDS011;64758;52.122;5.404;2023-02-28T05:49:04;4.63;;;2.10;;
75413;SDS011;64758;52.122;5.404;2023-02-28T05:51:31;2.83;;;1.60;;
75413;SDS011;64758;52.122;5.404;2023-02-28T05:54:00;2.60;;;1.67;;
75413;SDS011;64758;52.122;5.404;2023-02-28T05:56:27;3.63;;;1.67;;
75413;SDS011;64758;52.122;5.404;2023-02-28T05:58:54;5.32;;;1.77;;
75413;SDS011;64758;52.122;5.404;2023-02-28T06:03:57;3.35;;;1.65;;
75413;SDS011;64758;52.122;5.404;2023-02-28T06:06:27;3.67;;;1.98;;
75413;SDS011;64758;52.122;5.404;2023-02-28T06:08:54;3.28;;;1.85;;
75413;SDS011;64758;52.122;5.404;2023-02-28T06:11:20;4.07;;;1.40;;
75413;SDS011;64758;52.122;5.404;2023-02-28T06:13:47;3.70;;;1.60;;
75413;SDS011;64758;52.122;5.404;2023-02-28T06:16:13;3.22;;;2.00;;
75413;SDS011;64758;52.122;5.404;2023-02-28T06:18:40;3.15;;;1.67;;
75413;SDS011;64758;52.122;5.404;2023-02-28T06:21:07;2.75;;;1.77;;
75413;SDS011;64758;52.122;5.404;2023-02-28T06:23:35;3.08;;;1.80;;
75413;SDS011;64758;52.122;5.404;2023-02-28T06:26:01;3.10;;;1.93;;
75413;SDS011;64758;52.122;5.404;2023-02-28T06:28:28;4.15;;;1.88;;
75413;SDS011;64758;52.122;5.404;2023-02-28T06:30:54;3.28;;;1.83;;
75413;SDS011;64758;52.122;5.404;2023-02-28T06:33:21;3.47;;;1.58;;
75413;SDS011;64758;52.122;5.404;2023-02-28T06:35:50;3.25;;;1.52;;
75413;SDS011;64758;52.122;5.404;2023-02-28T06:38:17;5.33;;;2.10;;
75413;SDS011;64758;52.122;5.404;2023-02-28T06:40:44;5.65;;;2.00;;
75413;SDS011;64758;52.122;5.404;2023-02-28T06:43:11;2.95;;;1.70;;
75413;SDS011;64758;52.122;5.404;2023-02-28T06:45:41;3.47;;;2.08;;
75413;SDS011;64758;52.122;5.404;2023-02-28T06:48:09;3.90;;;1.83;;
75413;SDS011;64758;52.122;5.404;2023-02-28T06:50:36;3.87;;;2.10;;
75413;SDS011;64758;52.122;5.404;2023-02-28T06:53:03;5.07;;;2.35;;
75413;SDS011;64758;52.122;5.404;2023-02-28T06:55:30;2.90;;;2.30;;
75413;SDS011;64758;52.122;5.404;2023-02-28T06:57:57;4.75;;;2.40;;
75413;SDS011;64758;52.122;5.404;2023-02-28T07:00:24;4.18;;;2.13;;
75413;SDS011;64758;52.122;5.404;2023-02-28T07:02:51;2.77;;;1.83;;
75413;SDS011;64758;52.122;5.404;2023-02-28T07:05:17;3.78;;;2.10;;
75413;SDS011;64758;52.122;5.404;2023-02-28T07:07:44;4.03;;;2.10;;
75413;SDS011;64758;52.122;5.404;2023-02-28T07:10:13;3.40;;;2.20;;
75413;SDS011;64758;52.122;5.404;2023-02-28T07:12:45;4.70;;;2.63;;
75413;SDS011;64758;52.122;5.404;2023-02-28T07:15:12;4.23;;;2.40;;
75413;SDS011;64758;52.122;5.404;2023-02-28T07:17:38;3.63;;;2.35;;
75413;SDS011;64758;52.122;5.404;2023-02-28T07:20:05;4.28;;;1.83;;
75413;SDS011;64758;52.122;5.404;2023-02-28T07:22:32;4.05;;;2.15;;
75413;SDS011;64758;52.122;5.404;2023-02-28T07:24:58;2.97;;;2.28;;
75413;SDS011;64758;52.122;5.404;2023-02-28T07:27:25;5.33;;;2.20;;
75413;SDS011;64758;52.122;5.404;2023-02-28T07:29:52;3.38;;;2.30;;
75413;SDS011;64758;52.122;5.404;2023-02-28T07:32:19;5.55;;;2.65;;
75413;SDS011;64758;52.122;5.404;2023-02-28T07:34:45;3.75;;;2.08;;
75413;SDS011;64758;52.122;5.404;2023-02-28T07:37:12;4.90;;;2.58;;
75413;SDS011;64758;52.122;5.404;2023-02-28T07:39:39;3.93;;;2.40;;
75413;SDS011;64758;52.122;5.404;2023-02-28T07:42:07;4.05;;;2.28;;
75413;SDS011;64758;52.122;5.404;2023-02-28T07:44:38;4.65;;;2.78;;
75413;SDS011;64758;52.122;5.404;2023-02-28T07:47:09;4.65;;;2.95;;
75413;SDS011;64758;52.122;5.404;2023-02-28T07:49:36;4.85;;;3.13;;
75413;SDS011;64758;52.122;5.404;2023-02-28T07:52:03;4.87;;;2.70;;
75413;SDS011;64758;52.122;5.404;2023-02-28T07:54:33;5.25;;;2.45;;
75413;SDS011;64758;52.122;5.404;2023-02-28T07:57:00;3.80;;;2.17;;
75413;SDS011;64758;52.122;5.404;2023-02-28T07:59:26;3.90;;;2.05;;
75413;SDS011;64758;52.122;5.404;2023-02-28T08:01:53;4.03;;;2.53;;
75413;SDS011;64758;52.122;5.404;2023-02-28T08:04:20;6.70;;;2.27;;
75413;SDS011;64758;52.122;5.404;2023-02-28T08:06:46;3.33;;;1.70;;
75413;SDS011;64758;52.122;5.404;2023-02-28T08:09:13;4.35;;;1.73;;
75413;SDS011;64758;52.122;5.404;2023-02-28T08:11:40;3.67;;;1.80;;
75413;SDS011;64758;52.122;5.404;2023-02-28T08:14:07;2.85;;;2.03;;
75413;SDS011;64758;52.122;5.404;2023-02-28T08:16:33;3.50;;;2.27;;
75413;SDS011;64758;52.122;5.404;2023-02-28T08:19:00;3.05;;;2.30;;
75413;SDS011;64758;52.122;5.404;2023-02-28T08:21:27;3.85;;;2.00;;
75413;SDS011;64758;52.122;5.404;2023-02-28T08:23:54;4.72;;;2.10;;
75413;SDS011;64758;52.122;5.404;2023-02-28T08:26:20;4.07;;;2.65;;
75413;SDS011;64758;52.122;5.404;2023-02-28T08:28:47;3.70;;;2.20;;
75413;SDS011;64758;52.122;5.404;2023-02-28T08:31:14;3.88;;;2.40;;
75413;SDS011;64758;52.122;5.404;2023-02-28T08:33:43;3.47;;;2.38;;
75413;SDS011;64758;52.122;5.404;2023-02-28T08:36:15;3.92;;;2.60;;
75413;SDS011;64758;52.122;5.404;2023-02-28T08:38:43;5.10;;;2.22;;
75413;SDS011;64758;52.122;5.404;2023-02-28T08:41:10;4.53;;;2.53;;
75413;SDS011;64758;52.122;5.404;2023-02-28T08:43:39;4.57;;;2.13;;
75413;SDS011;64758;52.122;5.404;2023-02-28T08:46:06;2.80;;;2.28;;
75413;SDS011;64758;52.122;5.404;2023-02-28T08:48:34;4.05;;;2.28;;
75413;SDS011;64758;52.122;5.404;2023-02-28T08:51:02;4.93;;;1.95;;
75413;SDS011;64758;52.122;5.404;2023-02-28T08:53:34;5.67;;;2.40;;
75413;SDS011;64758;52.122;5.404;2023-02-28T08:56:02;3.20;;;1.98;;
75413;SDS011;64758;52.122;5.404;2023-02-28T08:58:36;2.83;;;2.10;;
75413;SDS011;64758;52.122;5.404;2023-02-28T09:01:07;2.53;;;1.83;;
75413;SDS011;64758;52.122;5.404;2023-02-28T09:03:55;3.03;;;1.88;;
75413;SDS011;64758;52.122;5.404;2023-02-28T09:06:23;4.37;;;2.00;;
75413;SDS011;64758;52.122;5.404;2023-02-28T09:08:51;3.10;;;1.98;;
75413;SDS011;64758;52.122;5.404;2023-02-28T09:11:19;4.68;;;1.75;;
75413;SDS011;64758;52.122;5.404;2023-02-28T09:13:46;1.83;;;1.55;;
75413;SDS011;64758;52.122;5.404;2023-02-28T09:16:13;2.80;;;1.75;;
75413;SDS011;64758;52.122;5.404;2023-02-28T09:18:41;2.47;;;1.20;;
75413;SDS011;64758;52.122;5.404;2023-02-28T09:21:09;2.17;;;1.10;;
75413;SDS011;64758;52.122;5.404;2023-02-28T09:23:40;2.05;;;1.20;;
75413;SDS011;64758;52.122;5.404;2023-02-28T09:26:08;1.70;;;0.88;;
75413;SDS011;64758;52.122;5.404;2023-02-28T09:28:49;2.80;;;0.93;;
75413;SDS011;64758;52.122;5.404;2023-02-28T09:31:21;2.17;;;1.07;;
75413;SDS011;64758;52.122;5.404;2023-02-28T09:33:51;1.92;;;0.80;;
75413;SDS011;64758;52.122;5.404;2023-02-28T09:36:19;1.67;;;0.88;;
75413;SDS011;64758;52.122;5.404;2023-02-28T09:38:48;1.63;;;0.95;;
75413;SDS011;64758;52.122;5.404;2023-02-28T09:41:19;2.35;;;0.88;;
75413;SDS011;64758;52.122;5.404;2023-02-28T09:43:58;1.77;;;0.60;;
75413;SDS011;64758;52.122;5.404;2023-02-28T09:46:42;1.45;;;0.70;;
75413;SDS011;64758;52.122;5.404;2023-02-28T09:49:17;1.92;;;0.50;;
75413;SDS011;64758;52.122;5.404;2023-02-28T09:51:50;3.72;;;0.70;;
75413;SDS011;64758;52.122;5.404;2023-02-28T09:54:28;1.55;;;0.80;;
75413;SDS011;64758;52.122;5.404;2023-02-28T09:57:01;2.53;;;0.90;;
75413;SDS011;64758;52.122;5.404;2023-02-28T09:59:54;1.95;;;0.90;;
75413;SDS011;64758;52.122;5.404;2023-02-28T10:05:22;1.92;;;0.90;;
75413;SDS011;64758;52.122;5.404;2023-02-28T10:07:59;2.33;;;0.90;;
75413;SDS011;64758;52.122;5.404;2023-02-28T10:10:29;1.70;;;0.90;;
75413;SDS011;64758;52.122;5.404;2023-02-28T10:13:05;1.38;;;0.60;;
75413;SDS011;64758;52.122;5.404;2023-02-28T10:15:39;2.97;;;0.80;;
75413;SDS011;64758;52.122;5.404;2023-02-28T10:18:10;1.52;;;0.63;;
75413;SDS011;64758;52.122;5.404;2023-02-28T10:20:41;1.60;;;0.93;;
75413;SDS011;64758;52.122;5.404;2023-02-28T10:25:41;1.17;;;0.70;;
75413;SDS011;64758;52.122;5.404;2023-02-28T10:28:15;1.33;;;0.70;;
75413;SDS011;64758;52.122;5.404;2023-02-28T10:30:48;2.03;;;0.85;;
75413;SDS011;64758;52.122;5.404;2023-02-28T10:35:46;1.60;;;0.93;;
75413;SDS011;64758;52.122;5.404;2023-02-28T10:38:18;1.75;;;1.02;;
75413;SDS011;64758;52.122;5.404;2023-02-28T10:40:46;1.10;;;0.80;;
75413;SDS011;64758;52.122;5.404;2023-02-28T10:45:51;2.30;;;0.88;;
75413;SDS011;64758;52.122;5.404;2023-02-28T10:48:32;1.67;;;0.80;;
75413;SDS011;64758;52.122;5.404;2023-02-28T10:51:02;1.58;;;0.80;;
75413;SDS011;64758;52.122;5.404;2023-02-28T10:53:32;1.25;;;0.50;;
75413;SDS011;64758;52.122;5.404;2023-02-28T10:56:24;2.67;;;0.80;;
75413;SDS011;64758;52.122;5.404;2023-02-28T10:58:56;2.20;;;0.70;;
75413;SDS011;64758;52.122;5.404;2023-02-28T11:01:42;1.73;;;0.90;;
75413;SDS011;64758;52.122;5.404;2023-02-28T11:06:59;1.35;;;0.70;;
75413;SDS011;64758;52.122;5.404;2023-02-28T11:09:28;1.15;;;0.50;;
75413;SDS011;64758;52.122;5.404;2023-02-28T11:11:59;1.40;;;0.60;;
75413;SDS011;64758;52.122;5.404;2023-02-28T11:14:27;1.17;;;0.70;;
75413;SDS011;64758;52.122;5.404;2023-02-28T11:16:58;2.17;;;0.77;;
75413;SDS011;64758;52.122;5.404;2023-02-28T11:19:44;4.40;;;0.80;;
75413;SDS011;64758;52.122;5.404;2023-02-28T11:22:21;2.17;;;0.70;;
75413;SDS011;64758;52.122;5.404;2023-02-28T11:24:53;1.35;;;0.60;;
75413;SDS011;64758;52.122;5.404;2023-02-28T11:30:00;1.10;;;0.63;;
75413;SDS011;64758;52.122;5.404;2023-02-28T11:32:27;1.52;;;0.80;;
75413;SDS011;64758;52.122;5.404;2023-02-28T11:35:01;1.85;;;0.82;;
75413;SDS011;64758;52.122;5.404;2023-02-28T11:37:28;1.50;;;0.90;;
75413;SDS011;64758;52.122;5.404;2023-02-28T11:39:56;2.73;;;0.80;;
75413;SDS011;64758;52.122;5.404;2023-02-28T11:50:54;1.92;;;0.70;;
75413;SDS011;64758;52.122;5.404;2023-02-28T11:56:41;1.30;;;0.77;;
75413;SDS011;64758;52.122;5.404;2023-02-28T12:05:01;1.27;;;0.70;;
75413;SDS011;64758;52.122;5.404;2023-02-28T12:07:42;0.93;;;0.60;;
75413;SDS011;64758;52.122;5.404;2023-02-28T12:10:32;1.55;;;0.80;;
75413;SDS011;64758;52.122;5.404;2023-02-28T12:13:12;1.15;;;0.50;;
75413;SDS011;64758;52.122;5.404;2023-02-28T12:19:00;2.05;;;0.63;;
75413;SDS011;64758;52.122;5.404;2023-02-28T12:24:29;1.42;;;0.70;;
75413;SDS011;64758;52.122;5.404;2023-02-28T12:27:20;1.95;;;0.70;;
75413;SDS011;64758;52.122;5.404;2023-02-28T12:32:30;2.90;;;0.70;;
75413;SDS011;64758;52.122;5.404;2023-02-28T12:40:26;2.03;;;0.90;;
75413;SDS011;64758;52.122;5.404;2023-02-28T12:43:03;1.52;;;0.68;;
75413;SDS011;64758;52.122;5.404;2023-02-28T12:46:07;1.55;;;0.80;;
75413;SDS011;64758;52.122;5.404;2023-02-28T12:51:24;1.85;;;0.82;;
75413;SDS011;64758;52.122;5.404;2023-02-28T12:59:29;1.15;;;0.60;;
75413;SDS011;64758;52.122;5.404;2023-02-28T13:10:06;2.30;;;0.95;;
75413;SDS011;64758;52.122;5.404;2023-02-28T13:12:34;1.58;;;0.98;;
75413;SDS011;64758;52.122;5.404;2023-02-28T13:15:04;1.77;;;0.90;;
75413;SDS011;64758;52.122;5.404;2023-02-28T13:17:42;2.45;;;1.00;;
75413;SDS011;64758;52.122;5.404;2023-02-28T13:20:17;1.33;;;0.90;;
75413;SDS011;64758;52.122;5.404;2023-02-28T13:22:49;2.72;;;0.90;;
75413;SDS011;64758;52.122;5.404;2023-02-28T13:28:11;1.40;;;0.80;;
75413;SDS011;64758;52.122;5.404;2023-02-28T13:31:00;1.90;;;0.65;;
75413;SDS011;64758;52.122;5.404;2023-02-28T13:33:36;1.98;;;0.90;;
75413;SDS011;64758;52.122;5.404;2023-02-28T13:36:26;1.65;;;0.88;;
75413;SDS011;64758;52.122;5.404;2023-02-28T13:44:04;1.48;;;1.02;;
75413;SDS011;64758;52.122;5.404;2023-02-28T13:46:32;1.83;;;1.10;;
75413;SDS011;64758;52.122;5.404;2023-02-28T13:49:25;1.88;;;0.90;;
75413;SDS011;64758;52.122;5.404;2023-02-28T13:51:55;2.47;;;0.90;;
75413;SDS011;64758;52.122;5.404;2023-02-28T13:57:32;2.50;;;1.23;;
75413;SDS011;64758;52.122;5.404;2023-02-28T14:03:00;2.13;;;1.00;;
75413;SDS011;64758;52.122;5.404;2023-02-28T14:05:30;1.75;;;1.20;;
75413;SDS011;64758;52.122;5.404;2023-02-28T14:08:04;1.77;;;1.00;;
75413;SDS011;64758;52.122;5.404;2023-02-28T14:10:36;2.42;;;0.93;;
75413;SDS011;64758;52.122;5.404;2023-02-28T14:13:36;1.92;;;0.98;;
75413;SDS011;64758;52.122;5.404;2023-02-28T14:16:13;1.80;;;1.00;;
75413;SDS011;64758;52.122;5.404;2023-02-28T14:18:47;1.38;;;1.00;;
75413;SDS011;64758;52.122;5.404;2023-02-28T14:21:20;3.33;;;1.10;;
75413;SDS011;64758;52.122;5.404;2023-02-28T14:37:44;3.40;;;1.15;;
75413;SDS011;64758;52.122;5.404;2023-02-28T14:40:21;1.85;;;1.17;;
75413;SDS011;64758;52.122;5.404;2023-02-28T14:43:00;2.10;;;1.20;;
75413;SDS011;64758;52.122;5.404;2023-02-28T14:45:34;2.58;;;1.40;;
75413;SDS011;64758;52.122;5.404;2023-02-28T14:48:04;1.95;;;1.10;;
75413;SDS011;64758;52.122;5.404;2023-02-28T14:50:35;1.67;;;1.20;;
75413;SDS011;64758;52.122;5.404;2023-02-28T14:53:03;1.75;;;1.30;;
75413;SDS011;64758;52.122;5.404;2023-02-28T14:55:43;2.58;;;1.40;;
75413;SDS011;64758;52.122;5.404;2023-02-28T14:58:25;1.67;;;1.20;;
75413;SDS011;64758;52.122;5.404;2023-02-28T15:00:58;1.70;;;1.27;;
75413;SDS011;64758;52.122;5.404;2023-02-28T15:05:56;1.63;;;1.20;;
75413;SDS011;64758;52.122;5.404;2023-02-28T15:08:28;1.90;;;1.13;;
75413;SDS011;64758;52.122;5.404;2023-02-28T15:11:02;2.00;;;1.42;;
75413;SDS011;64758;52.122;5.404;2023-02-28T15:13:34;1.67;;;1.33;;
75413;SDS011;64758;52.122;5.404;2023-02-28T15:16:05;2.13;;;1.50;;
75413;SDS011;64758;52.122;5.404;2023-02-28T15:21:24;4.82;;;1.60;;
75413;SDS011;64758;52.122;5.404;2023-02-28T15:23:58;1.88;;;1.50;;
75413;SDS011;64758;52.122;5.404;2023-02-28T15:26:27;2.75;;;1.55;;
75413;SDS011;64758;52.122;5.404;2023-02-28T15:29:02;2.07;;;1.20;;
75413;SDS011;64758;52.122;5.404;2023-02-28T15:31:33;1.70;;;1.40;;
75413;SDS011;64758;52.122;5.404;2023-02-28T15:34:27;1.95;;;1.63;;
75413;SDS011;64758;52.122;5.404;2023-02-28T15:42:42;2.80;;;1.20;;
75413;SDS011;64758;52.122;5.404;2023-02-28T15:46:08;1.45;;;1.20;;
75413;SDS011;64758;52.122;5.404;2023-02-28T15:48:23;1.50;;;1.13;;
75413;SDS011;64758;52.122;5.404;2023-02-28T15:50:54;1.50;;;1.20;;
75413;SDS011;64758;52.122;5.404;2023-02-28T15:53:26;2.45;;;1.30;;
75413;SDS011;64758;52.122;5.404;2023-02-28T15:56:00;1.90;;;1.67;;
75413;SDS011;64758;52.122;5.404;2023-02-28T15:58:29;1.65;;;1.20;;
75413;SDS011;64758;52.122;5.404;2023-02-28T16:01:08;1.60;;;1.10;;
75413;SDS011;64758;52.122;5.404;2023-02-28T16:03:45;2.45;;;1.50;;
75413;SDS011;64758;52.122;5.404;2023-02-28T16:09:03;2.43;;;1.17;;
75413;SDS011;64758;52.122;5.404;2023-02-28T16:11:34;1.58;;;1.15;;
75413;SDS011;64758;52.122;5.404;2023-02-28T16:14:10;1.75;;;1.10;;
75413;SDS011;64758;52.122;5.404;2023-02-28T16:16:43;2.83;;;1.55;;
75413;SDS011;64758;52.122;5.404;2023-02-28T16:19:11;1.85;;;1.02;;
75413;SDS011;64758;52.122;5.404;2023-02-28T16:21:38;1.43;;;0.93;;
75413;SDS011;64758;52.122;5.404;2023-02-28T16:24:05;3.10;;;1.50;;
75413;SDS011;64758;52.122;5.404;2023-02-28T16:26:32;2.63;;;1.38;;
75413;SDS011;64758;52.122;5.404;2023-02-28T16:29:00;3.08;;;1.00;;
75413;SDS011;64758;52.122;5.404;2023-02-28T16:31:28;2.97;;;1.27;;
75413;SDS011;64758;52.122;5.404;2023-02-28T16:33:56;2.17;;;1.30;;
75413;SDS011;64758;52.122;5.404;2023-02-28T16:36:24;1.90;;;1.20;;
75413;SDS011;64758;52.122;5.404;2023-02-28T16:38:54;1.30;;;1.20;;
75413;SDS011;64758;52.122;5.404;2023-02-28T16:41:21;2.30;;;1.13;;
75413;SDS011;64758;52.122;5.404;2023-02-28T16:43:51;1.35;;;1.20;;
75413;SDS011;64758;52.122;5.404;2023-02-28T16:46:20;1.67;;;1.30;;
75413;SDS011;64758;52.122;5.404;2023-02-28T16:48:47;2.38;;;1.38;;
75413;SDS011;64758;52.122;5.404;2023-02-28T16:51:17;2.72;;;1.30;;
75413;SDS011;64758;52.122;5.404;2023-02-28T16:53:44;2.13;;;1.55;;
75413;SDS011;64758;52.122;5.404;2023-02-28T16:56:16;2.72;;;1.77;;
75413;SDS011;64758;52.122;5.404;2023-02-28T16:58:45;3.07;;;1.57;;
75413;SDS011;64758;52.122;5.404;2023-02-28T17:01:12;2.92;;;1.30;;
75413;SDS011;64758;52.122;5.404;2023-02-28T17:03:40;3.40;;;1.40;;
75413;SDS011;64758;52.122;5.404;2023-02-28T17:06:17;2.20;;;1.52;;
75413;SDS011;64758;52.122;5.404;2023-02-28T17:08:51;1.53;;;1.17;;
75413;SDS011;64758;52.122;5.404;2023-02-28T17:11:18;2.20;;;1.52;;
75413;SDS011;64758;52.122;5.404;2023-02-28T17:13:45;2.67;;;1.42;;
75413;SDS011;64758;52.122;5.404;2023-02-28T17:18:44;4.03;;;1.30;;
75413;SDS011;64758;52.122;5.404;2023-02-28T17:21:14;1.93;;;1.20;;
75413;SDS011;64758;52.122;5.404;2023-02-28T17:23:42;4.88;;;1.67;;
75413;SDS011;64758;52.122;5.404;2023-02-28T17:26:11;3.75;;;2.00;;
75413;SDS011;64758;52.122;5.404;2023-02-28T17:28:40;3.42;;;1.70;;
75413;SDS011;64758;52.122;5.404;2023-02-28T17:31:08;2.58;;;1.98;;